Aérodrome :
LOGIN :

S'inscrire | Disclaimer

   EN    FR    IT 

 










Légende :    VFR   VFR Marginal   IFR   IFR Intensif   IFR Très Intensif
Visi : 
Plafond : 
>= 8 km
>= 3000ft
5 à 8 km
1000 à 3000 ft
1500m à 5 km
500 à 1000 ft
800 à 1500m
200 à 500 ft
< 800m
< 200 ft
Symboles :   Orages  Brouillard  Fortes neiges  Fortes précipitations  Vent > 20 kt
SIGMETs :   Divers  Orages  Givrage  Turbulence  Onde Orograph.  Cendres Volcan.






- Altitude de l'aérodrome : 423 ft
- Code IATA : PIS


LFBI - Poitiers

DERNIER METAR :
  • 270300Z AUTO 19014KT 9999 FEW011 SCT042 BKN050 08/07 Q1015 TEMPO 20015G25KT 3000 RA BKN008

METARs EXPIRÉS :
  • 270230Z AUTO 19013KT 9999 -RADZ FEW010/// OVC041/// ///TCU 08/07 Q1016 TEMPO 20015G25KT 3000 RA BKN008
  • 270200Z AUTO 19015KT 9999 -DZ FEW009 SCT032 OVC040 08/08 Q1016 TEMPO 20015G25KT 3000 RA BKN008
  • 270130Z AUTO 20014KT 7000 -DZ FEW027 SCT035 OVC043 08/08 Q1016
  • 270100Z AUTO 20015KT 9999 -DZ BKN009 BKN035 BKN049 09/08 Q1016 TEMPO 20015G25KT 3000 RA
  • 270030Z AUTO 19015KT 9999 -RADZ SCT010 BKN022 BKN043 09/08 Q1016 TEMPO 20015G25KT 3000 RA BKN008

TAF AMD TAF LFBI
Valide du 27 à 00h jusqu'au 28 à 00h UTC


270006Z 2700/2724 21012KT 9999 BKN040
TEMPO 2700/2715 20015G25KT 3000 RA BKN008
TEMPO 2715/2724 23015G35KT 3000 SHRA BKN010 BKN015TCU



MET'MAP, la Météo Aéronautique d'un coup d'oeil ! - Copyright ORBIFLY Décembre 2007 - Disclaimer

ORBIFLY MET'MAP TEAM :

Programmation & Développement : Alexandra Zaïnal
Sur une idée originale de : Baudouin d'Aumeries
Assistance à la programmation : Marc-Olivier Méhu
Soutien technique & logistique : Manuel Goepfert

Contact : metmap@orbifly.com




SOURCES & CREDITS :

   NOAA